Time;durP1;ratioP1;P1;durP2;ratioP2;P2;SDS_P1;SDS_P2;PMS_P1;PMS_P2;Temp;Humidity;BMP_temperature;BMP_pressure;BME280_temperature;BME280_humidity;BME280_pressure;Samples;Min_cycle;Max_cycle;Signal;HPM_P1;HPM_P2
2022/10/01 00:01:16;;;;;;;14.07;12.77;;;;;;;17.94;59.17;100856.53;6182740;23;20025;-80
2022/10/01 00:03:43;;;;;;;17.30;12.77;;;;;;;17.99;59.26;100864.06;6185125;23;20029;-79
2022/10/01 00:06:11;;;;;;;13.88;12.38;;;;;;;18.07;59.40;100874.59;6185191;23;20025;-80
2022/10/01 00:08:40;;;;;;;13.68;12.35;;;;;;;18.08;58.95;100881.91;6184075;23;20040;-79
2022/10/01 00:11:13;;;;;;;12.70;11.38;;;;;;;17.95;58.91;100874.38;6157576;23;20029;-80
2022/10/01 00:13:45;;;;;;;14.38;11.85;;;;;;;17.97;59.06;100867.22;6183684;23;20028;-80
2022/10/01 00:16:16;;;;;;;13.57;10.75;;;;;;;18.11;58.48;100888.91;6158080;23;20025;-79
2022/10/01 00:18:44;;;;;;;13.95;12.07;;;;;;;18.12;58.63;100888.59;6183292;23;20017;-80
2022/10/01 00:21:23;;;;;;;16.40;12.25;;;;;;;17.77;58.65;100836.66;6157596;23;20021;-79
2022/10/01 00:23:55;;;;;;;13.60;12.18;;;;;;;17.89;58.67;100868.00;6181501;23;20098;-80
2022/10/01 00:26:25;;;;;;;13.88;12.30;;;;;;;18.00;58.66;100885.53;6183803;23;20032;-79
2022/10/01 00:28:58;;;;;;;17.95;12.18;;;;;;;17.95;58.62;100888.50;6183018;23;20028;-79
2022/10/01 00:31:26;;;;;;;14.93;11.85;;;;;;;17.81;59.11;100870.75;6181796;23;20334;-79
2022/10/01 00:33:55;;;;;;;13.45;12.25;;;;;;;17.89;59.06;100889.78;6183353;23;20067;-79
2022/10/01 00:36:21;;;;;;;21.73;12.27;;;;;;;17.81;59.27;100876.41;6182307;23;20028;-79
2022/10/01 00:38:48;;;;;;;16.10;12.30;;;;;;;17.83;58.75;100877.75;6159176;23;20094;-79
2022/10/01 00:41:17;;;;;;;16.80;12.43;;;;;;;17.90;58.95;100886.63;6185239;23;20088;-79
2022/10/01 00:43:48;;;;;;;12.90;11.50;;;;;;;17.83;58.85;100882.56;6185171;23;20021;-80
2022/10/01 00:46:25;;;;;;;14.45;11.68;;;;;;;17.62;58.82;100860.47;6185713;23;20028;-79
2022/10/01 00:49:06;;;;;;;13.45;12.15;;;;;;;17.60;59.09;100881.69;6182063;23;20044;-79
2022/10/01 00:51:39;;;;;;;16.90;11.20;;;;;;;17.59;59.07;100880.88;6183611;23;20025;-79
2022/10/01 00:54:12;;;;;;;13.38;11.18;;;;;;;17.27;59.30;100817.84;6159017;23;20032;-79
2022/10/01 00:56:40;;;;;;;18.40;12.52;;;;;;;17.46;59.31;100856.34;6185228;23;20039;-79
2022/10/01 00:59:08;;;;;;;15.10;12.88;;;;;;;17.59;59.29;100874.38;6186139;23;20384;-79
2022/10/01 01:01:37;;;;;;;14.77;11.75;;;;;;;17.52;59.43;100866.34;6185179;23;20029;-79
2022/10/01 01:04:15;;;;;;;15.05;12.13;;;;;;;17.50;59.69;100871.47;6183898;23;20025;-80
2022/10/01 01:06:56;;;;;;;16.33;12.35;;;;;;;17.19;59.57;100840.31;6185815;23;20522;-80
2022/10/01 01:09:39;;;;;;;13.27;10.80;;;;;;;17.14;59.81;100841.28;6184984;23;20017;-80
2022/10/01 01:12:36;;;;;;;15.73;12.50;;;;;;;17.28;59.51;100867.47;6184318;23;20028;-80
2022/10/01 01:15:15;;;;;;;14.40;12.90;;;;;;;17.35;59.78;100886.81;6184212;23;20021;-79
2022/10/01 01:17:51;;;;;;;13.55;12.23;;;;;;;17.36;59.80;100882.00;6184430;23;20067;-80
2022/10/01 01:20:36;;;;;;;16.08;12.63;;;;;;;17.27;60.01;100896.88;6184168;23;20043;-80
2022/10/01 01:23:30;;;;;;;14.45;13.05;;;;;;;17.09;59.98;100888.53;6184261;23;20025;-80
2022/10/01 01:26:03;;;;;;;14.38;12.88;;;;;;;17.20;60.19;100879.53;6144001;23;20032;-81
2022/10/01 01:28:43;;;;;;;18.58;13.82;;;;;;;17.10;60.30;100839.44;6183366;23;20021;-80
2022/10/01 01:31:13;;;;;;;;;;;;;;;17.12;60.20;100877.44;6186207;23;20062;-81
2022/10/01 01:33:43;;;;;;;13.07;11.10;;;;;;;17.25;59.85;100879.41;6158096;23;19924;-79
2022/10/01 01:36:15;;;;;;;17.60;11.10;;;;;;;17.32;60.25;100878.13;6158488;23;20349;-79
2022/10/01 01:38:48;;;;;;;12.68;11.48;;;;;;;17.00;59.92;100815.09;6184043;23;20017;-80
2022/10/01 01:41:19;;;;;;;16.55;11.93;;;;;;;17.21;60.10;100847.34;6185312;23;20461;-80
2022/10/01 01:43:50;;;;;;;17.40;10.93;;;;;;;17.16;60.08;100840.97;6158221;23;20025;-80
2022/10/01 01:46:18;;;;;;;14.27;10.30;;;;;;;17.28;60.29;100864.66;6184011;23;20025;-79
2022/10/01 01:48:49;;;;;;;12.60;10.90;;;;;;;17.26;60.22;100861.34;6182182;23;20021;-80
2022/10/01 01:51:31;;;;;;;13.50;9.57;;;;;;;17.39;60.15;100876.53;6184283;23;20059;-79
2022/10/01 01:53:58;;;;;;;14.88;10.18;;;;;;;17.31;59.83;100865.19;6183779;23;20021;-80
2022/10/01 01:56:25;;;;;;;13.32;10.95;;;;;;;17.06;60.02;100827.94;6184804;23;20044;-78
2022/10/01 01:58:52;;;;;;;14.77;11.27;;;;;;;17.22;59.89;100868.75;6183537;23;20192;-79
2022/10/01 02:01:42;;;;;;;15.90;12.05;;;;;;;17.22;59.75;100890.50;6184163;23;20024;-79
2022/10/01 02:04:22;;;;;;;12.85;11.55;;;;;;;17.21;59.60;100892.50;6184150;23;20131;-78
2022/10/01 02:07:02;;;;;;;13.13;11.82;;;;;;;17.24;59.91;100891.03;6183053;23;20025;-79
2022/10/01 02:09:38;;;;;;;14.20;12.10;;;;;;;17.16;59.81;100877.66;6184043;23;20021;-79
2022/10/01 02:12:36;;;;;;;12.88;10.82;;;;;;;17.14;60.36;100892.09;6184125;23;20032;-78
2022/10/01 02:15:16;;;;;;;12.60;11.30;;;;;;;17.00;61.04;100885.63;6185097;23;20021;-79
2022/10/01 02:17:43;;;;;;;6.65;5.88;;;;;;;17.10;60.71;100901.50;6184699;23;20472;-78
2022/10/01 02:20:20;;;;;;;7.18;4.10;;;;;;;17.15;60.61;100895.75;6184664;23;20028;-80
2022/10/01 02:23:24;;;;;;;9.30;3.20;;;;;;;17.03;60.83;100887.84;6184217;23;20029;-79
2022/10/01 02:25:57;;;;;;;16.77;4.22;;;;;;;16.92;61.11;100866.63;6183867;23;20021;-81
2022/10/01 02:28:24;;;;;;;8.77;3.20;;;;;;;17.07;61.31;100907.78;6182360;23;20478;-79
2022/10/01 02:30:54;;;;;;;10.00;4.80;;;;;;;16.90;61.27;100886.69;6183817;23;20031;-79
2022/10/01 02:33:26;;;;;;;6.68;3.22;;;;;;;17.05;61.58;100899.63;6183944;23;20052;-80
2022/10/01 02:35:55;;;;;;;16.52;4.03;;;;;;;16.79;61.38;100865.50;6157239;23;20025;-79
2022/10/01 02:38:23;;;;;;;7.32;3.35;;;;;;;16.80;61.80;100870.81;6185153;23;20017;-80
2022/10/01 02:40:56;;;;;;;7.57;2.80;;;;;;;16.76;61.63;100878.25;6182581;23;20051;-80
2022/10/01 02:43:32;;;;;;;7.28;3.45;;;;;;;16.72;62.21;100871.53;6158133;23;20448;-80
2022/10/01 02:46:06;;;;;;;8.52;2.75;;;;;;;16.75;62.17;100879.41;6184183;23;20025;-79
2022/10/01 02:48:34;;;;;;;13.90;4.93;;;;;;;16.53;62.56;100866.00;6182683;23;20101;-79
2022/10/01 02:51:36;;;;;;;8.80;3.58;;;;;;;16.56;63.15;100898.38;6183320;23;20028;-79
2022/10/01 02:54:22;;;;;;;4.38;2.28;;;;;;;16.67;63.16;100905.47;6164030;23;20021;-79
2022/10/01 02:59:35;;;;;;;6.93;2.72;;;;;;;16.63;62.89;100898.78;6183672;23;20017;-79
2022/10/01 03:02:02;;;;;;;12.05;3.92;;;;;;;16.64;62.85;100889.16;6157120;23;20028;-80
2022/10/01 03:04:29;;;;;;;6.05;2.88;;;;;;;16.59;63.01;100897.75;6157971;23;20033;-80
2022/10/01 03:07:02;;;;;;;7.57;2.90;;;;;;;16.67;62.79;100893.34;6182416;23;20025;-79
2022/10/01 03:09:33;;;;;;;9.15;3.05;;;;;;;16.84;62.47;100921.78;6157480;23;20103;-80
2022/10/01 03:12:01;;;;;;;11.02;3.53;;;;;;;16.73;62.53;100904.22;6182042;23;20025;-79
2022/10/01 03:14:28;;;;;;;10.88;3.10;;;;;;;16.81;62.07;100911.97;6184245;23;20067;-81
2022/10/01 03:16:54;;;;;;;6.45;2.75;;;;;;;16.72;62.22;100902.56;6158427;23;20068;-80
2022/10/01 03:19:21;;;;;;;7.10;2.72;;;;;;;17.08;61.81;100930.03;6158179;23;20024;-80
2022/10/01 03:21:48;;;;;;;7.63;2.97;;;;;;;17.12;61.41;100902.84;6157421;23;20025;-79
2022/10/01 03:24:15;;;;;;;9.20;2.85;;;;;;;17.08;61.51;100909.44;6182384;23;20021;-80
2022/10/01 03:26:42;;;;;;;10.15;3.53;;;;;;;17.17;60.87;100942.25;6182124;23;20028;-79
2022/10/01 03:29:10;;;;;;;6.55;3.25;;;;;;;17.11;61.37;100943.50;6184188;23;20032;-78
2022/10/01 03:31:37;;;;;;;9.13;3.53;;;;;;;16.94;61.11;100920.75;6158062;23;20025;-80
2022/10/01 03:34:04;;;;;;;6.65;3.03;;;;;;;17.02;60.86;100942.56;6184285;23;20059;-79
2022/10/01 03:36:31;;;;;;;8.38;3.83;;;;;;;16.83;61.12;100925.78;6184499;23;20040;-79
2022/10/01 03:38:58;;;;;;;10.38;4.57;;;;;;;16.84;61.39;100943.53;6183211;23;20491;-79
2022/10/01 03:41:25;;;;;;;8.43;4.60;;;;;;;16.75;61.40;100944.28;6156671;23;20032;-79
2022/10/01 03:43:52;;;;;;;11.35;5.78;;;;;;;16.75;61.35;100957.50;6183172;23;20039;-80
2022/10/01 03:46:25;;;;;;;9.30;4.78;;;;;;;16.56;61.41;100933.03;6183825;23;20028;-79
2022/10/01 03:48:53;;;;;;;12.07;4.82;;;;;;;16.48;61.50;100936.59;6184059;23;20340;-80
2022/10/01 03:51:20;;;;;;;11.43;5.28;;;;;;;16.45;61.36;100942.00;6183891;23;20029;-80
2022/10/01 03:53:48;;;;;;;13.35;6.03;;;;;;;16.45;61.45;100947.66;6184559;23;20487;-81
2022/10/01 03:56:16;;;;;;;12.32;6.47;;;;;;;16.20;61.27;100910.31;6158023;23;20025;-78
2022/10/01 03:58:43;;;;;;;15.05;6.40;;;;;;;16.29;60.92;100939.47;6183619;23;20013;-79
2022/10/01 04:01:09;;;;;;;10.48;6.57;;;;;;;16.31;61.04;100942.81;6184204;23;20478;-79
2022/10/01 04:03:36;;;;;;;13.25;5.20;;;;;;;16.36;60.92;100947.50;6181838;23;20025;-79
2022/10/01 04:06:03;;;;;;;9.60;4.60;;;;;;;16.33;61.39;100937.69;6156686;23;20028;-81
2022/10/01 04:08:30;;;;;;;6.38;4.30;;;;;;;16.34;61.34;100945.03;6158007;23;20029;-81
2022/10/01 04:10:57;;;;;;;12.45;5.35;;;;;;;16.31;61.38;100942.81;6184102;23;20021;-80
2022/10/01 04:13:24;;;;;;;10.35;5.25;;;;;;;16.45;61.28;100967.38;6183534;23;20028;-80
2022/10/01 04:15:50;;;;;;;6.88;4.18;;;;;;;16.28;61.87;100926.53;6186231;23;20719;-79
2022/10/01 04:18:20;;;;;;;9.43;4.03;;;;;;;16.33;61.70;100948.13;6186345;23;20053;-80
2022/10/01 04:20:47;;;;;;;6.72;3.88;;;;;;;16.43;61.61;100955.56;6159915;23;20422;-81
2022/10/01 04:23:14;;;;;;;11.55;3.88;;;;;;;16.46;61.73;100958.59;6185462;23;20029;-80
2022/10/01 04:25:41;;;;;;;11.10;4.35;;;;;;;16.40;61.81;100959.00;6159456;23;20093;-80
2022/10/01 04:28:10;;;;;;;10.13;3.70;;;;;;;16.37;61.76;100948.34;6185914;23;20490;-79
2022/10/01 04:30:39;;;;;;;7.57;4.17;;;;;;;16.50;61.97;100968.09;6185623;23;20021;-80
2022/10/01 04:33:08;;;;;;;6.93;3.53;;;;;;;16.38;61.64;100947.22;6186068;23;20090;-80
2022/10/01 04:35:35;;;;;;;11.65;4.28;;;;;;;16.44;61.87;100971.31;6186069;23;20032;-80
2022/10/01 04:38:06;;;;;;;13.63;4.57;;;;;;;16.46;61.61;100980.31;6183876;23;20028;-80
2022/10/01 04:40:35;;;;;;;6.35;3.58;;;;;;;16.27;62.05;100957.81;6184907;23;20017;-79
2022/10/01 04:43:03;;;;;;;7.30;3.97;;;;;;;16.48;61.59;100992.97;6184810;23;20025;-80
2022/10/01 04:45:31;;;;;;;10.07;4.45;;;;;;;16.29;61.91;100961.19;6185322;23;20117;-80
2022/10/01 04:47:58;;;;;;;6.03;3.75;;;;;;;16.38;61.92;100984.69;6159968;23;20495;-79
2022/10/01 04:50:26;;;;;;;5.63;2.95;;;;;;;16.40;61.78;100995.66;6185458;23;20021;-80
2022/10/01 04:52:53;;;;;;;7.88;3.75;;;;;;;16.34;62.02;100986.44;6185743;23;20025;-79
2022/10/01 04:55:21;;;;;;;6.47;3.40;;;;;;;16.46;61.70;101005.69;6158606;23;20031;-80
2022/10/01 04:57:48;;;;;;;5.35;2.85;;;;;;;16.29;61.84;100987.38;6186645;23;20344;-79
2022/10/01 05:00:18;;;;;;;8.13;3.28;;;;;;;16.41;62.04;101009.44;6185181;23;20025;-79
2022/10/01 05:02:45;;;;;;;;;;;;;;;16.32;61.80;101006.47;6189128;23;20021;-79
2022/10/01 05:05:12;;;;;;;7.13;2.97;;;;;;;16.21;61.68;100985.28;6188394;23;19927;-78
2022/10/01 05:07:39;;;;;;;12.00;3.80;;;;;;;16.35;62.10;101000.22;6185553;23;20024;-80
2022/10/01 05:10:09;;;;;;;9.25;3.55;;;;;;;16.23;62.00;100991.41;6164064;23;20043;-79
2022/10/01 05:12:36;;;;;;;5.95;3.55;;;;;;;16.28;61.79;100993.31;6188440;23;20028;-79
2022/10/01 05:15:03;;;;;;;12.00;4.20;;;;;;;16.20;62.17;100977.94;6191026;23;20021;-78
2022/10/01 05:17:31;;;;;;;6.68;3.35;;;;;;;16.31;62.32;100998.34;6190008;23;20036;-79
2022/10/01 05:19:59;;;;;;;6.68;3.33;;;;;;;16.32;62.03;101009.31;6186382;23;20352;-78
2022/10/01 05:22:26;;;;;;;13.88;4.43;;;;;;;16.23;62.15;100994.22;6159007;23;20032;-79
2022/10/01 05:24:53;;;;;;;7.90;3.65;;;;;;;16.17;61.80;100995.50;6182942;23;20025;-79
2022/10/01 05:27:19;;;;;;;8.82;4.32;;;;;;;16.13;61.69;101005.69;6183832;23;20364;-80
2022/10/01 05:29:47;;;;;;;7.30;3.75;;;;;;;16.10;61.95;100997.84;6185435;23;20021;-80
2022/10/01 05:32:14;;;;;;;13.10;4.15;;;;;;;16.21;61.80;101021.91;6185083;23;20021;-80
2022/10/01 05:34:41;;;;;;;8.32;4.05;;;;;;;16.16;61.71;101027.59;6186042;23;20475;-79
2022/10/01 05:37:08;;;;;;;12.18;4.30;;;;;;;16.03;61.96;100997.38;6184799;23;20025;-79
2022/10/01 05:39:35;;;;;;;8.63;3.05;;;;;;;16.08;62.21;101026.31;6185446;23;20025;-79
2022/10/01 05:42:02;;;;;;;7.60;3.03;;;;;;;15.98;62.18;101014.38;6184557;23;20025;-79
2022/10/01 05:44:36;;;;;;;7.00;3.42;;;;;;;15.92;62.62;101019.25;6159730;23;20071;-79
2022/10/01 05:47:05;;;;;;;6.43;4.10;;;;;;;15.92;62.61;101015.59;6184214;23;20025;-80
2022/10/01 05:49:32;;;;;;;5.13;2.97;;;;;;;15.91;63.07;101016.75;6184673;23;20028;-79
2022/10/01 05:51:59;;;;;;;11.45;4.13;;;;;;;15.92;62.72;101033.34;6159040;23;20032;-78
2022/10/01 05:54:28;;;;;;;12.60;3.95;;;;;;;16.04;62.75;101044.16;6185324;23;20021;-79
2022/10/01 05:56:56;;;;;;;8.95;5.28;;;;;;;15.85;63.04;101024.44;6183957;23;20022;-80
2022/10/01 05:59:23;;;;;;;12.68;4.15;;;;;;;15.90;62.97;101043.22;6183716;23;20023;-80
2022/10/01 06:01:56;;;;;;;7.72;3.80;;;;;;;15.73;63.67;101018.44;6183499;23;20092;-83
2022/10/01 06:04:23;;;;;;;7.60;3.83;;;;;;;15.72;63.52;101033.63;6157968;23;20052;-87
2022/10/01 06:06:51;;;;;;;9.77;4.18;;;;;;;15.78;63.72;101066.22;6186567;23;20025;-84
2022/10/01 06:09:18;;;;;;;7.68;3.53;;;;;;;15.44;63.57;101022.16;6183192;23;20025;-83
2022/10/01 06:11:47;;;;;;;7.47;3.78;;;;;;;15.44;63.94;101021.31;6157723;23;20029;-85
2022/10/01 06:14:15;;;;;;;8.15;3.60;;;;;;;15.65;63.45;101051.69;6159175;23;20325;-82
2022/10/01 06:16:42;;;;;;;8.57;3.83;;;;;;;15.72;63.14;101073.88;6158443;23;20024;-85
2022/10/01 06:19:09;;;;;;;10.50;4.13;;;;;;;15.76;62.92;101071.31;6182709;23;20025;-84
2022/10/01 06:21:36;;;;;;;11.13;4.15;;;;;;;15.61;62.58;101055.44;6161960;23;20036;-87
2022/10/01 06:24:04;;;;;;;7.40;4.20;;;;;;;15.80;62.86;101072.41;6187614;23;20017;-90
2022/10/01 06:26:31;;;;;;;8.90;4.27;;;;;;;15.34;62.50;101002.59;6158193;23;20020;-86
2022/10/01 06:29:22;;;;;;;9.95;3.83;;;;;;;15.76;62.61;101069.34;6180474;23;20488;-84
2022/10/01 06:31:50;;;;;;;8.80;3.73;;;;;;;15.64;62.81;101052.84;6158798;23;20020;-91
2022/10/01 06:34:17;;;;;;;9.27;4.33;;;;;;;15.82;63.01;101087.81;6186754;23;20021;-87
2022/10/01 06:36:46;;;;;;;9.18;4.45;;;;;;;15.48;62.82;101020.41;6160185;23;20102;-89
2022/10/01 06:39:13;;;;;;;11.88;4.88;;;;;;;15.74;62.88;101065.16;6160679;23;20021;-92
2022/10/01 06:41:42;;;;;;;9.98;4.90;;;;;;;15.33;62.67;101004.59;6185593;23;20028;-85
2022/10/01 06:44:09;;;;;;;8.73;4.53;;;;;;;15.90;62.93;101082.66;6185245;23;20080;-86
2022/10/01 06:46:36;;;;;;;11.60;4.57;;;;;;;15.34;62.81;100992.19;6182730;23;20333;-93
2022/10/01 06:49:03;;;;;;;9.70;4.80;;;;;;;15.57;62.97;101034.66;6156878;23;20025;-84
2022/10/01 06:54:17;;;;;;;12.98;4.80;;;;;;;15.99;62.82;101097.75;6183481;23;20025;-87
2022/10/01 06:56:44;;;;;;;9.27;4.88;;;;;;;15.82;63.21;101073.75;6156001;23;20028;-81
2022/10/01 06:59:10;;;;;;;14.82;5.32;;;;;;;15.66;63.38;101044.16;6183010;23;20064;-83
2022/10/01 07:01:37;;;;;;;11.93;4.43;;;;;;;15.88;63.45;101069.72;6157719;23;20029;-83
2022/10/01 07:04:05;;;;;;;8.82;4.53;;;;;;;15.72;63.70;101037.28;6157677;23;20017;-89
2022/10/01 07:06:32;;;;;;;10.88;5.32;;;;;;;15.90;63.89;101060.13;6158780;23;20474;-86
2022/10/01 07:08:59;;;;;;;12.27;4.87;;;;;;;16.10;63.94;101071.09;6182980;23;20112;-87
2022/10/01 07:11:26;;;;;;;8.10;4.72;;;;;;;16.33;63.86;101100.31;6158874;23;20033;-83
2022/10/01 07:13:53;;;;;;;9.00;4.10;;;;;;;16.46;63.91;101104.34;6185815;23;20035;-82
2022/10/01 07:16:20;;;;;;;8.70;4.07;;;;;;;16.49;63.99;101095.28;6183954;23;20021;-85
2022/10/01 07:18:47;;;;;;;8.82;4.50;;;;;;;15.96;63.19;100996.94;6157783;23;20028;-83
2022/10/01 07:21:17;;;;;;;8.88;3.95;;;;;;;16.49;63.11;101053.00;6155601;23;20103;-84
2022/10/01 07:23:47;;;;;;;9.82;4.63;;;;;;;16.93;62.34;101099.63;6183114;23;20025;-85
2022/10/01 07:26:13;;;;;;;8.10;4.25;;;;;;;16.96;62.24;101094.22;6182977;23;20464;-86
2022/10/01 07:28:43;;;;;;;9.70;4.88;;;;;;;17.17;61.96;101125.69;6156456;23;20104;-84
2022/10/01 07:31:27;;;;;;;13.18;3.85;;;;;;;17.23;61.79;101107.53;6182398;23;20016;-85
2022/10/01 07:34:41;;;;;;;7.78;4.22;;;;;;;17.30;61.75;101121.22;6071524;23;20458;-85
2022/10/01 07:37:31;;;;;;;9.50;4.38;;;;;;;17.24;61.60;101112.00;6071817;23;20029;-85
2022/10/01 07:39:58;;;;;;;15.95;5.35;;;;;;;17.50;61.42;101125.63;6067422;23;20513;-85
2022/10/01 07:42:30;;;;;;;8.55;5.90;;;;;;;17.75;60.93;101139.22;6090893;23;20030;-79
2022/10/01 07:44:57;;;;;;;10.23;3.78;;;;;;;17.67;60.88;101110.84;6066973;23;20023;-84
2022/10/01 07:47:24;;;;;;;7.90;4.80;;;;;;;17.79;60.32;101105.56;6069279;23;20498;-83
2022/10/01 07:49:51;;;;;;;9.55;4.95;;;;;;;17.96;59.92;101090.78;6091682;23;20029;-84
2022/10/01 07:52:18;;;;;;;9.95;5.65;;;;;;;18.34;59.53;101110.25;6068732;23;20485;-83
2022/10/01 07:54:46;;;;;;;6.47;3.63;;;;;;;18.67;59.06;101136.31;6066768;23;20046;-84
2022/10/01 07:57:14;;;;;;;5.82;3.92;;;;;;;18.64;58.81;101103.84;6092443;23;20711;-83
2022/10/01 07:59:41;;;;;;;5.53;3.65;;;;;;;18.90;58.69;101123.00;6070512;23;20026;-84
2022/10/01 08:02:16;;;;;;;9.05;4.00;;;;;;;19.27;58.31;101167.03;6069939;23;20026;-84
2022/10/01 08:07:31;;;;;;;6.15;3.80;;;;;;;19.32;57.54;101117.94;6093154;23;20159;-84
2022/10/01 08:09:58;;;;;;;11.52;5.80;;;;;;;19.65;57.14;101139.06;6069507;23;20022;-84
2022/10/01 08:12:27;;;;;;;12.35;4.47;;;;;;;19.95;57.28;101167.69;6158637;23;20448;-83
2022/10/01 08:14:54;;;;;;;6.82;4.97;;;;;;;20.17;56.59;101199.91;6159252;23;20104;-84
2022/10/01 08:17:22;;;;;;;8.75;5.38;;;;;;;20.29;56.53;101163.25;6159566;23;20024;-83
2022/10/01 08:19:55;;;;;;;11.60;4.45;;;;;;;20.31;56.35;101149.59;6160910;23;20049;-84
2022/10/01 08:22:21;;;;;;;13.07;4.15;;;;;;;20.84;55.70;101205.22;6185031;23;20020;-84
2022/10/01 08:24:48;;;;;;;8.68;4.55;;;;;;;21.03;55.12;101190.69;6185717;23;20028;-84
2022/10/01 08:27:15;;;;;;;9.23;4.53;;;;;;;21.33;54.64;101156.69;6159793;23;20021;-83
2022/10/01 08:29:42;;;;;;;9.73;5.45;;;;;;;22.14;53.72;101186.97;6185570;23;20029;-84
2022/10/01 08:32:09;;;;;;;10.50;5.38;;;;;;;22.73;52.62;101209.66;6159873;23;20326;-84
2022/10/01 08:34:36;;;;;;;8.45;4.60;;;;;;;22.90;51.59;101203.00;6186293;23;20029;-84
2022/10/01 08:37:03;;;;;;;13.10;5.22;;;;;;;23.14;51.19;101197.44;6185614;23;20368;-83
2022/10/01 08:39:30;;;;;;;10.57;4.65;;;;;;;23.31;50.35;101227.75;6159865;23;20028;-84
2022/10/01 08:42:42;;;;;;;7.55;4.63;;;;;;;23.22;50.31;101227.03;6159982;23;20100;-84
2022/10/01 08:45:22;;;;;;;6.43;3.75;;;;;;;23.46;49.85;101223.44;6156529;23;20355;-82
2022/10/01 08:48:08;;;;;;;7.80;4.18;;;;;;;23.53;49.08;101185.81;6187485;23;20021;-83
2022/10/01 08:50:39;;;;;;;9.35;4.43;;;;;;;24.01;48.41;101224.16;6159967;23;20045;-84
2022/10/01 08:53:14;;;;;;;8.82;3.83;;;;;;;24.18;47.98;101183.97;6186291;23;20021;-83
2022/10/01 08:55:42;;;;;;;10.23;4.07;;;;;;;24.75;47.24;101205.78;6161283;23;20336;-84
2022/10/01 08:58:22;;;;;;;7.68;3.97;;;;;;;25.13;46.39;101206.50;6187519;23;20024;-84
2022/10/01 09:00:49;;;;;;;;;;;;;;;25.38;47.97;101232.97;6160656;23;20017;-84
2022/10/01 09:03:17;;;;;;;9.10;3.45;;;;;;;25.38;46.83;101181.50;6160749;23;19916;-84
2022/10/01 09:05:56;;;;;;;7.20;3.70;;;;;;;26.05;46.26;101241.72;6159976;23;20025;-83
2022/10/01 09:08:43;;;;;;;6.22;3.58;;;;;;;26.46;45.37;101251.75;6161334;23;20032;-84
2022/10/01 09:11:24;;;;;;;7.75;3.45;;;;;;;26.91;44.62;101245.47;6160435;23;20025;-85
2022/10/01 09:14:03;;;;;;;7.55;3.42;;;;;;;27.35;44.17;101252.97;6186547;23;20047;-84
2022/10/01 09:17:01;;;;;;;8.10;3.97;;;;;;;27.82;43.41;101221.13;6160924;23;20025;-84
2022/10/01 09:19:53;;;;;;;8.80;3.70;;;;;;;28.53;42.60;101238.75;6125207;23;20032;-84
2022/10/01 09:22:26;;;;;;;7.88;5.95;;;;;;;29.02;41.35;101248.50;6160290;23;20243;-83
2022/10/01 09:25:11;;;;;;;6.82;5.72;;;;;;;28.83;41.24;101212.09;6161003;23;20025;-84
2022/10/01 09:27:38;;;;;;;7.07;4.35;;;;;;;29.31;40.22;101220.94;6160595;23;20028;-83
2022/10/01 09:30:31;;;;;;;7.22;4.53;;;;;;;29.77;40.13;101248.59;6186572;23;20021;-83
2022/10/01 09:33:14;;;;;;;4.93;3.90;;;;;;;30.27;39.50;101237.56;6182365;23;20029;-82
2022/10/01 09:35:47;;;;;;;6.30;2.92;;;;;;;30.48;38.35;101255.03;6159038;23;20029;-83
2022/10/01 09:38:21;;;;;;;7.95;3.83;;;;;;;30.73;37.63;101248.59;6160106;23;20027;-83
2022/10/01 09:40:54;;;;;;;4.65;3.40;;;;;;;30.91;37.25;101207.13;6186293;23;20048;-84
2022/10/01 09:43:36;;;;;;;8.23;2.95;;;;;;;30.95;37.24;101226.53;6160233;23;20032;-84
2022/10/01 09:46:12;;;;;;;4.65;3.03;;;;;;;30.96;36.26;101245.47;6185318;23;20020;-85
2022/10/01 09:48:58;;;;;;;4.68;2.95;;;;;;;31.11;36.88;101235.63;6185937;23;20021;-85
2022/10/01 09:51:43;;;;;;;6.45;3.60;;;;;;;31.41;36.29;101243.22;6159672;23;20044;-84
2022/10/01 09:54:22;;;;;;;5.60;3.38;;;;;;;31.75;35.52;101246.59;6160385;23;20040;-84
2022/10/01 09:57:00;;;;;;;4.93;3.72;;;;;;;31.70;34.83;101204.53;6159170;23;20029;-83
2022/10/01 09:59:37;;;;;;;8.30;4.43;;;;;;;32.21;34.73;101258.25;6185442;23;20025;-83
2022/10/01 10:02:15;;;;;;;7.47;3.70;;;;;;;32.28;34.37;101228.50;6159695;23;20039;-84
2022/10/01 10:04:42;;;;;;;6.00;3.63;;;;;;;32.57;33.85;101243.78;6159369;23;20079;-85
2022/10/01 10:07:16;;;;;;;6.95;4.68;;;;;;;32.65;33.33;101230.13;6159031;23;20017;-85
2022/10/01 10:09:44;;;;;;;8.43;3.75;;;;;;;32.79;33.15;101235.91;6185288;23;20024;-85
2022/10/01 10:12:40;;;;;;;4.68;2.78;;;;;;;32.63;33.36;101213.19;6160504;23;20023;-85
2022/10/01 10:15:12;;;;;;;3.60;2.50;;;;;;;32.78;32.62;101211.91;6182688;23;20020;-85
2022/10/01 10:17:43;;;;;;;6.68;2.92;;;;;;;33.03;31.80;101234.19;6159321;23;20060;-84
2022/10/01 10:20:17;;;;;;;8.38;3.20;;;;;;;33.12;32.05;101254.00;6159479;23;20021;-83
2022/10/01 10:22:44;;;;;;;10.45;3.28;;;;;;;32.87;31.82;101201.97;6186135;23;20029;-85
2022/10/01 10:25:20;;;;;;;8.85;3.60;;;;;;;32.86;31.49;101175.13;6159603;23;20032;-85
2022/10/01 10:27:55;;;;;;;4.07;3.17;;;;;;;33.13;31.31;101218.88;6169202;23;20039;-84
2022/10/01 10:30:23;;;;;;;4.95;2.75;;;;;;;33.13;31.36;101215.13;6163687;23;20120;-84
2022/10/01 10:32:52;;;;;;;4.22;2.28;;;;;;;33.19;31.01;101219.22;6189361;23;20024;-85
2022/10/01 10:35:27;;;;;;;4.95;2.35;;;;;;;33.14;30.98;101211.00;6163394;23;20027;-85
2022/10/01 10:37:58;;;;;;;4.93;2.47;;;;;;;33.47;30.57;101253.00;6168043;23;20025;-85
2022/10/01 10:40:29;;;;;;;5.88;2.78;;;;;;;33.40;30.39;101236.50;6166910;23;20021;-86
2022/10/01 10:42:58;;;;;;;4.07;2.75;;;;;;;33.67;30.41;101262.84;6162666;23;20044;-85
2022/10/01 10:45:35;;;;;;;6.25;2.33;;;;;;;33.46;30.45;101213.72;6163678;23;20025;-84
2022/10/01 10:48:05;;;;;;;6.53;2.90;;;;;;;33.57;30.00;101233.94;6161831;23;20080;-84
2022/10/01 10:50:41;;;;;;;3.60;2.53;;;;;;;33.60;30.64;101236.81;6160592;23;20021;-83
2022/10/01 10:53:27;;;;;;;5.88;2.50;;;;;;;33.76;30.67;101232.59;6165169;23;20021;-86
2022/10/01 10:56:00;;;;;;;6.57;2.10;;;;;;;33.93;30.12;101257.72;6164242;23;20040;-85
2022/10/01 10:58:33;;;;;;;3.70;2.40;;;;;;;34.13;29.75;101261.75;6161830;23;20027;-85
2022/10/01 11:01:08;;;;;;;3.00;2.10;;;;;;;34.24;29.28;101237.63;6188053;23;20017;-85
2022/10/01 11:03:40;;;;;;;4.85;2.33;;;;;;;34.43;29.19;101228.34;6163237;23;20025;-86
2022/10/01 11:06:13;;;;;;;4.95;3.17;;;;;;;35.22;28.48;101244.94;6190030;23;20021;-86
2022/10/01 11:08:42;;;;;;;3.67;2.65;;;;;;;36.57;27.00;101249.94;6163707;23;20598;-87
2022/10/01 11:11:39;;;;;;;4.82;2.13;;;;;;;36.99;27.20;101257.91;6167626;23;20028;-86
2022/10/01 11:14:36;;;;;;;4.47;3.10;;;;;;;36.27;27.63;101217.59;6188712;23;20025;-85
2022/10/01 11:17:45;;;;;;;6.63;3.08;;;;;;;36.10;27.79;101235.38;6187221;23;20021;-85
2022/10/01 11:20:19;;;;;;;3.72;2.83;;;;;;;36.14;27.26;101256.47;6160598;23;20021;-84
2022/10/01 11:23:08;;;;;;;5.68;3.20;;;;;;;36.12;27.05;101256.13;6160818;23;20028;-84
2022/10/01 11:26:05;;;;;;;4.95;2.60;;;;;;;35.97;27.97;101235.16;6162569;23;20021;-84
2022/10/01 11:28:42;;;;;;;4.45;2.47;;;;;;;36.23;26.88;101271.28;6163301;23;20352;-83
2022/10/01 11:31:29;;;;;;;3.92;2.60;;;;;;;36.48;26.61;101254.28;6188621;23;20020;-84
2022/10/01 11:34:23;;;;;;;5.05;2.47;;;;;;;36.80;26.64;101257.84;6189194;23;20096;-82
2022/10/01 11:37:06;;;;;;;6.60;3.03;;;;;;;37.11;25.80;101259.31;6162791;23;20040;-83
2022/10/01 11:39:34;;;;;;;4.30;2.33;;;;;;;37.35;25.23;101247.56;6161996;23;20021;-84
2022/10/01 11:42:06;;;;;;;6.60;2.43;;;;;;;37.43;24.88;101246.97;6188253;23;20021;-84
2022/10/01 11:45:00;;;;;;;6.57;2.08;;;;;;;37.61;24.75;101237.84;6162391;23;20051;-83
2022/10/01 11:47:35;;;;;;;3.25;1.83;;;;;;;37.97;24.45;101237.00;6162360;23;20021;-83
2022/10/01 11:50:16;;;;;;;3.40;1.90;;;;;;;38.13;23.90;101180.78;6161190;23;20024;-84
2022/10/01 11:52:51;;;;;;;2.42;1.52;;;;;;;38.83;23.42;101235.59;6159820;23;20017;-84
2022/10/01 11:58:49;;;;;;;6.28;2.10;;;;;;;40.05;22.12;101249.44;6187109;23;20100;-84